Time;durP1;ratioP1;P1;durP2;ratioP2;P2;SDS_P1;SDS_P2;PMS_P1;PMS_P2;Temp;Humidity;BMP_temperature;BMP_pressure;BME280_temperature;BME280_humidity;BME280_pressure;Samples;Min_cycle;Max_cycle;Signal;HPM_P1;HPM_P2
2023/03/07 00:01:05;;;;;;;2.77;2.57;;;;;;;5.04;64.56;94282.44;4340639;32;20343;-56
2023/03/07 00:03:35;;;;;;;2.33;2.13;;;;;;;5.13;64.15;94286.00;4311976;32;20305;-56
2023/03/07 00:06:07;;;;;;;3.27;3.07;;;;;;;5.14;64.57;94272.59;4328621;32;20341;-54
2023/03/07 00:08:35;;;;;;;2.20;2.10;;;;;;;5.17;64.06;94276.50;4308866;32;20299;-52
2023/03/07 00:11:11;;;;;;;1.50;1.50;;;;;;;5.24;64.04;94276.91;4317982;32;20306;-55
2023/03/07 00:13:38;;;;;;;3.27;3.07;;;;;;;5.33;63.63;94280.47;4271098;32;20417;-54
2023/03/07 00:16:09;;;;;;;3.10;1.93;;;;;;;5.35;63.52;94278.31;4330386;32;20340;-53
2023/03/07 00:18:37;;;;;;;2.97;2.77;;;;;;;5.34;63.68;94274.12;4279090;32;20429;-54
2023/03/07 00:21:07;;;;;;;2.37;2.17;;;;;;;5.25;64.21;94281.09;4335902;32;20309;-55
2023/03/07 00:23:37;;;;;;;2.13;2.03;;;;;;;5.29;63.79;94276.84;4304296;32;20294;-55
2023/03/07 00:26:20;;;;;;;2.47;2.03;;;;;;;5.33;63.75;94285.72;4317624;32;20317;-57
2023/03/07 00:28:49;;;;;;;1.43;1.43;;;;;;;5.27;64.32;94268.44;4298372;32;20290;-54
2023/03/07 00:31:17;;;;;;;3.13;2.87;;;;;;;5.31;63.46;94272.06;4321195;32;20354;-54
2023/03/07 00:33:45;;;;;;;1.93;1.73;;;;;;;5.26;63.83;94273.97;4319967;32;20466;-53
2023/03/07 00:36:19;;;;;;;2.43;2.33;;;;;;;5.42;63.48;94257.69;4314468;32;20286;-53
2023/03/07 00:38:47;;;;;;;2.53;2.33;;;;;;;5.37;63.44;94255.16;4329368;32;20342;-53
2023/03/07 00:41:15;;;;;;;1.93;1.83;;;;;;;5.25;63.36;94265.31;4334970;32;20295;-54
2023/03/07 00:43:45;;;;;;;5.13;2.43;;;;;;;5.23;63.53;94262.19;4295828;33;20314;-55
2023/03/07 00:46:16;;;;;;;1.40;1.40;;;;;;;5.26;63.58;94253.75;4314518;32;20278;-54
2023/03/07 00:48:43;;;;;;;3.30;3.07;;;;;;;5.25;63.38;94252.16;4275261;33;20287;-56
2023/03/07 00:51:22;;;;;;;1.73;1.67;;;;;;;5.50;62.77;94246.53;4312130;33;20301;-56
2023/03/07 00:53:49;;;;;;;2.70;2.50;;;;;;;5.54;62.45;94244.09;4270573;33;20304;-55
2023/03/07 00:56:22;;;;;;;3.33;3.03;;;;;;;5.27;63.43;94247.41;4307726;33;20278;-54
2023/03/07 00:58:49;;;;;;;2.53;2.43;;;;;;;5.16;63.87;94248.66;4347714;32;20290;-55
2023/03/07 01:01:19;;;;;;;2.47;2.27;;;;;;;5.33;63.34;94233.13;4343377;32;20316;-54
2023/03/07 01:03:48;;;;;;;3.03;2.90;;;;;;;5.07;63.93;94230.09;4338465;32;20367;-56
2023/03/07 01:06:35;;;;;;;2.40;2.20;;;;;;;5.30;63.50;94233.69;4337653;32;20305;-56
2023/03/07 01:09:06;;;;;;;2.40;2.20;;;;;;;5.42;63.28;94231.37;4334607;32;20276;-56
2023/03/07 01:11:34;;;;;;;2.57;2.37;;;;;;;5.18;63.59;94239.41;4297214;32;20316;-54
2023/03/07 01:14:04;;;;;;;2.03;1.93;;;;;;;5.11;64.07;94233.72;4292333;32;20283;-55
2023/03/07 01:16:34;;;;;;;2.20;2.10;;;;;;;5.03;64.19;94228.31;4343621;32;20287;-53
2023/03/07 01:19:04;;;;;;;1.67;1.67;;;;;;;4.95;64.85;94226.34;4297658;32;20336;-51
2023/03/07 01:21:37;;;;;;;2.33;2.23;;;;;;;5.05;64.60;94231.44;4338073;32;20297;-54
2023/03/07 01:24:09;;;;;;;1.67;1.67;;;;;;;5.00;64.54;94223.63;4334065;32;20281;-55
2023/03/07 01:26:36;;;;;;;2.20;2.10;;;;;;;4.76;64.96;94228.97;4307419;33;20406;-54
2023/03/07 01:29:04;;;;;;;3.37;3.17;;;;;;;4.66;65.23;94223.84;4323624;32;20298;-50
2023/03/07 01:31:31;;;;;;;2.63;2.43;;;;;;;4.79;64.89;94220.50;4302570;32;20329;-53
2023/03/07 01:33:59;;;;;;;3.37;2.13;;;;;;;4.78;64.54;94214.47;4322024;32;20277;-52
2023/03/07 01:36:31;;;;;;;2.97;2.77;;;;;;;4.65;65.10;94209.16;4308407;32;20325;-54
2023/03/07 01:39:19;;;;;;;3.27;2.70;;;;;;;4.76;65.17;94214.00;4304325;33;20290;-51
2023/03/07 01:41:47;;;;;;;3.60;2.80;;;;;;;4.64;65.34;94218.09;4346972;32;20328;-53
2023/03/07 01:44:23;;;;;;;1.90;1.90;;;;;;;4.80;64.74;94208.94;4342344;32;23448;-52
2023/03/07 01:47:07;;;;;;;2.53;2.33;;;;;;;4.73;64.71;94208.53;4342947;32;20306;-54
2023/03/07 01:49:44;;;;;;;2.70;2.10;;;;;;;4.70;64.54;94206.47;4332979;32;20351;-51
2023/03/07 01:52:34;;;;;;;2.87;2.67;;;;;;;4.56;65.22;94209.03;4317369;32;20328;-53
2023/03/07 01:55:08;;;;;;;2.23;2.13;;;;;;;4.65;64.98;94211.78;4257581;33;20302;-54
2023/03/07 01:57:38;;;;;;;2.03;1.90;;;;;;;4.55;64.54;94201.41;4296060;33;20300;-54
2023/03/07 02:00:10;;;;;;;2.03;1.93;;;;;;;4.38;65.25;94196.62;4309447;32;20294;-52
2023/03/07 02:02:42;;;;;;;2.57;2.37;;;;;;;4.53;65.05;94198.28;4344494;32;20277;-53
2023/03/07 02:05:18;;;;;;;2.10;1.90;;;;;;;4.51;64.57;94197.78;4315364;32;20274;-54
2023/03/07 02:07:49;;;;;;;2.50;2.40;;;;;;;4.54;64.43;94199.84;4320410;32;20364;-55
2023/03/07 02:10:19;;;;;;;2.83;2.63;;;;;;;4.50;64.13;94194.38;4281483;32;20366;-51
2023/03/07 02:12:44;;;;;;;2.13;2.03;;;;;;;4.36;64.88;94189.06;4261898;32;20321;-54
2023/03/07 02:15:12;;;;;;;2.03;1.93;;;;;;;4.52;64.49;94184.38;4313067;32;20289;-54
2023/03/07 02:17:42;;;;;;;1.93;1.83;;;;;;;4.43;64.12;94186.84;4284309;33;20197;-53
2023/03/07 02:20:22;;;;;;;2.00;1.90;;;;;;;4.48;64.29;94183.38;4306544;32;20289;-51
2023/03/07 02:22:49;;;;;;;4.53;2.83;;;;;;;4.63;64.16;94172.66;4307394;32;20284;-53
2023/03/07 02:25:52;;;;;;;2.93;2.73;;;;;;;4.41;64.21;94185.56;4324320;32;20278;-52
2023/03/07 02:28:18;;;;;;;2.03;1.93;;;;;;;4.62;63.74;94178.19;4330802;32;20344;-54
2023/03/07 02:31:03;;;;;;;2.53;2.43;;;;;;;4.75;63.68;94180.13;4337092;32;20417;-55
2023/03/07 02:33:32;;;;;;;2.10;1.67;;;;;;;4.79;63.24;94174.00;4315823;32;20184;-55
2023/03/07 02:36:07;;;;;;;2.03;1.93;;;;;;;4.80;62.79;94178.19;4312823;32;20309;-51
2023/03/07 02:38:39;;;;;;;3.03;2.73;;;;;;;4.79;63.08;94179.25;4318609;32;20285;-51
2023/03/07 02:41:08;;;;;;;3.10;2.67;;;;;;;4.58;63.34;94177.19;4343066;32;20297;-51
2023/03/07 02:43:35;;;;;;;2.17;2.07;;;;;;;4.52;63.84;94181.75;4325109;32;20293;-55
2023/03/07 02:46:01;;;;;;;2.10;2.10;;;;;;;4.63;63.28;94182.38;4333148;32;20269;-55
2023/03/07 02:48:28;;;;;;;2.07;1.87;;;;;;;4.59;63.58;94181.38;4317442;33;20296;-54
2023/03/07 02:50:56;;;;;;;1.70;1.57;;;;;;;4.59;64.18;94176.91;4311044;32;20398;-54
2023/03/07 02:53:24;;;;;;;3.30;1.97;;;;;;;4.83;62.99;94180.25;4292598;33;20296;-54
2023/03/07 02:55:52;;;;;;;3.37;2.13;;;;;;;5.04;62.09;94179.94;4289189;33;20275;-56
2023/03/07 02:58:21;;;;;;;1.90;1.80;;;;;;;4.81;62.33;94182.38;4287982;32;20278;-52
2023/03/07 03:00:48;;;;;;;1.47;1.47;;;;;;;4.91;62.28;94185.94;4326251;32;20274;-55
2023/03/07 03:03:15;;;;;;;2.73;2.53;;;;;;;4.80;62.44;94186.06;4334352;32;20385;-51
2023/03/07 03:05:43;;;;;;;2.00;1.90;;;;;;;4.55;63.15;94185.66;4314829;32;20273;-53
2023/03/07 03:08:14;;;;;;;2.23;2.13;;;;;;;4.74;63.03;94181.19;4328207;32;20294;-53
2023/03/07 03:10:40;;;;;;;1.63;1.53;;;;;;;4.63;62.95;94174.50;4315475;32;20347;-54
2023/03/07 03:13:07;;;;;;;2.10;2.00;;;;;;;4.48;62.96;94172.88;4301656;32;20314;-53
2023/03/07 03:15:36;;;;;;;2.20;2.00;;;;;;;4.37;63.86;94176.69;4319285;32;20273;-54
2023/03/07 03:18:04;;;;;;;2.97;2.80;;;;;;;4.30;64.22;94179.69;4320406;32;20293;-56
2023/03/07 03:20:30;;;;;;;2.63;2.30;;;;;;;4.28;64.18;94175.75;4310144;32;20301;-55
2023/03/07 03:22:59;;;;;;;5.27;3.43;;;;;;;4.44;63.42;94170.03;4318178;32;20294;-54
2023/03/07 03:25:26;;;;;;;4.57;1.87;;;;;;;4.55;63.49;94168.06;4330369;32;20288;-56
2023/03/07 03:27:52;;;;;;;2.33;2.23;;;;;;;4.41;63.51;94167.19;4342815;32;20309;-53
2023/03/07 03:30:19;;;;;;;1.97;1.87;;;;;;;4.59;63.25;94163.78;4308999;32;20369;-55
2023/03/07 03:32:50;;;;;;;2.20;1.87;;;;;;;4.50;63.56;94160.25;4318672;32;20346;-54
2023/03/07 03:35:17;;;;;;;1.97;1.87;;;;;;;4.60;62.87;94167.97;4284996;32;20341;-55
2023/03/07 03:37:44;;;;;;;2.30;2.10;;;;;;;4.47;62.99;94156.34;4320388;32;20401;-56
2023/03/07 03:40:13;;;;;;;2.47;2.33;;;;;;;4.48;63.38;94163.16;4314665;32;20293;-55
2023/03/07 03:42:46;;;;;;;1.77;1.67;;;;;;;4.43;63.80;94162.44;4309854;32;20286;-55
2023/03/07 03:45:15;;;;;;;1.70;1.50;;;;;;;4.51;63.52;94158.41;4342172;32;20331;-54
2023/03/07 03:47:43;;;;;;;1.70;1.60;;;;;;;4.70;62.67;94146.06;4325282;32;20336;-55
2023/03/07 03:50:11;;;;;;;1.37;1.37;;;;;;;4.55;63.40;94152.31;4326874;32;20293;-55
2023/03/07 03:52:39;;;;;;;3.17;2.17;;;;;;;4.78;62.71;94151.41;4331707;32;20300;-54
2023/03/07 03:55:06;;;;;;;5.23;1.97;;;;;;;4.54;63.07;94153.38;4299742;32;20320;-53
2023/03/07 03:57:33;;;;;;;1.57;1.53;;;;;;;4.66;62.69;94151.09;4286733;32;20302;-54
2023/03/07 03:59:59;;;;;;;1.13;1.13;;;;;;;4.42;63.60;94153.00;4334509;32;20343;-53
2023/03/07 04:02:29;;;;;;;2.63;2.43;;;;;;;4.60;63.33;94148.81;4322738;32;20291;-53
2023/03/07 04:04:57;;;;;;;1.83;1.73;;;;;;;4.52;62.63;94144.22;4337433;32;20281;-54
2023/03/07 04:07:31;;;;;;;1.43;1.43;;;;;;;4.36;63.58;94146.28;4343045;32;20278;-53
2023/03/07 04:09:59;;;;;;;2.70;2.60;;;;;;;4.34;63.91;94149.19;4297168;32;20291;-53
2023/03/07 04:12:24;;;;;;;2.07;1.83;;;;;;;4.30;63.76;94144.78;4311484;32;20289;-54
2023/03/07 04:15:13;;;;;;;2.30;2.10;;;;;;;4.27;63.78;94137.47;4331549;32;20341;-56
2023/03/07 04:17:41;;;;;;;0.90;0.90;;;;;;;4.34;63.80;94124.78;4322744;32;20205;-53
2023/03/07 04:20:13;;;;;;;2.23;2.13;;;;;;;4.19;64.57;94140.69;4296559;32;20284;-53
2023/03/07 04:22:52;;;;;;;2.47;2.33;;;;;;;4.32;63.97;94134.78;4334536;32;20349;-54
2023/03/07 04:25:20;;;;;;;3.13;2.00;;;;;;;4.38;63.54;94129.16;4281462;33;20378;-53
2023/03/07 04:27:46;;;;;;;1.33;1.33;;;;;;;4.48;63.26;94138.75;4317612;33;20294;-52
2023/03/07 04:30:12;;;;;;;2.07;1.97;;;;;;;4.44;63.22;94133.28;4330132;32;20344;-53
2023/03/07 04:32:38;;;;;;;1.37;1.37;;;;;;;4.52;62.96;94131.09;4303381;33;20294;-54
2023/03/07 04:35:07;;;;;;;1.70;1.70;;;;;;;4.51;63.15;94132.94;4330875;32;20273;-53
2023/03/07 04:37:34;;;;;;;1.60;1.53;;;;;;;4.32;63.63;94126.91;4321028;32;20194;-54
2023/03/07 04:40:01;;;;;;;2.90;2.10;;;;;;;4.37;62.72;94121.56;4323669;32;20286;-54
2023/03/07 04:42:27;;;;;;;1.73;1.60;;;;;;;4.31;62.83;94120.88;4288414;32;20487;-52
2023/03/07 04:44:54;;;;;;;2.50;2.30;;;;;;;4.33;63.19;94125.84;4293692;33;20332;-54
2023/03/07 04:47:22;;;;;;;2.87;2.67;;;;;;;4.37;62.78;94121.56;4330190;32;20287;-56
2023/03/07 04:49:50;;;;;;;2.33;2.23;;;;;;;4.33;63.29;94128.47;4292974;33;20340;-54
2023/03/07 04:52:18;;;;;;;2.27;2.17;;;;;;;4.19;63.66;94124.94;4326982;32;20287;-55
2023/03/07 04:54:45;;;;;;;9.57;2.40;;;;;;;4.41;62.75;94125.97;4323242;32;20378;-53
2023/03/07 04:57:15;;;;;;;1.70;1.60;;;;;;;4.49;62.32;94119.31;4332053;32;20297;-51
2023/03/07 04:59:41;;;;;;;2.13;2.03;;;;;;;4.36;62.61;94120.03;4326478;32;20286;-54
2023/03/07 05:02:12;;;;;;;4.43;2.50;;;;;;;4.21;63.96;94112.34;4281321;33;20286;-52
2023/03/07 05:04:40;;;;;;;2.90;2.70;;;;;;;4.10;64.34;94128.22;4291088;33;20279;-53
2023/03/07 05:07:08;;;;;;;2.37;2.27;;;;;;;4.03;64.19;94124.37;4287407;33;20287;-53
2023/03/07 05:09:37;;;;;;;3.13;2.80;;;;;;;4.00;64.31;94124.94;4310330;33;20287;-50
2023/03/07 05:12:05;;;;;;;2.90;2.63;;;;;;;3.98;64.63;94122.59;4291213;33;20325;-55
2023/03/07 05:14:34;;;;;;;2.10;2.00;;;;;;;3.92;64.82;94136.84;4319433;32;20297;-55
2023/03/07 05:16:59;;;;;;;2.57;1.97;;;;;;;3.84;65.34;94131.44;4303073;33;20312;-53
2023/03/07 05:19:26;;;;;;;2.87;2.60;;;;;;;3.96;65.86;94127.34;4319542;32;20289;-55
2023/03/07 05:21:53;;;;;;;2.23;2.13;;;;;;;3.80;65.94;94136.44;4322400;32;20194;-54
2023/03/07 05:24:20;;;;;;;2.50;2.40;;;;;;;3.66;66.59;94132.94;4279533;32;20303;-54
2023/03/07 05:26:47;;;;;;;3.23;3.03;;;;;;;3.88;66.31;94135.84;4301053;32;20444;-54
2023/03/07 05:29:14;;;;;;;2.90;2.70;;;;;;;3.95;66.35;94132.87;4293468;32;20317;-55
2023/03/07 05:31:40;;;;;;;3.47;2.90;;;;;;;3.82;66.64;94131.72;4282409;33;20283;-51
2023/03/07 05:34:14;;;;;;;2.87;2.77;;;;;;;3.76;67.37;94130.19;4313810;32;20591;-53
2023/03/07 05:36:40;;;;;;;2.10;2.00;;;;;;;3.74;67.08;94125.22;4330573;32;20303;-54
2023/03/07 05:39:07;;;;;;;2.03;1.93;;;;;;;3.80;66.89;94124.13;4294649;33;20325;-53
2023/03/07 05:41:36;;;;;;;1.97;1.87;;;;;;;3.75;67.43;94123.38;4316742;32;20194;-51
2023/03/07 05:44:04;;;;;;;3.13;2.93;;;;;;;3.83;67.08;94125.41;4331650;32;20290;-54
2023/03/07 05:46:30;;;;;;;2.67;2.57;;;;;;;3.90;67.25;94123.22;4310101;33;20279;-53
2023/03/07 05:48:57;;;;;;;2.63;2.20;;;;;;;3.83;67.21;94128.03;4302378;32;20306;-52
2023/03/07 05:51:27;;;;;;;2.47;2.37;;;;;;;3.85;67.39;94125.13;4293554;33;20291;-54
2023/03/07 05:54:20;;;;;;;3.73;3.53;;;;;;;3.96;67.24;94124.72;4301857;33;20337;-54
2023/03/07 05:56:47;;;;;;;2.47;2.37;;;;;;;3.88;67.36;94125.34;4319248;32;20401;-52
2023/03/07 05:59:14;;;;;;;2.30;2.20;;;;;;;4.00;67.25;94125.72;4315638;33;20330;-52
2023/03/07 06:01:41;;;;;;;2.80;2.67;;;;;;;3.75;67.82;94120.75;4335270;32;20305;-52
2023/03/07 06:04:12;;;;;;;2.60;2.40;;;;;;;3.97;67.16;94121.03;4324027;32;20305;-55
2023/03/07 06:06:41;;;;;;;3.30;3.13;;;;;;;3.80;67.66;94123.34;4292675;32;20301;-52
2023/03/07 06:09:07;;;;;;;1.90;1.80;;;;;;;3.60;68.38;94119.09;4316790;32;20337;-54
2023/03/07 06:11:33;;;;;;;2.77;2.63;;;;;;;3.67;68.33;94129.28;4334688;32;20296;-53
2023/03/07 06:14:00;;;;;;;3.33;3.13;;;;;;;3.84;67.82;94121.72;4334305;32;20193;-56
2023/03/07 06:16:27;;;;;;;2.73;2.53;;;;;;;3.94;67.62;94123.47;4334361;32;20285;-54
2023/03/07 06:18:52;;;;;;;2.60;2.50;;;;;;;3.81;68.11;94124.91;4338878;32;20307;-53
2023/03/07 06:21:18;;;;;;;2.73;2.53;;;;;;;3.80;68.50;94128.59;4290006;32;20299;-51
2023/03/07 06:23:44;;;;;;;2.90;2.60;;;;;;;3.91;67.99;94124.78;4285120;32;20312;-52
2023/03/07 06:26:11;;;;;;;2.57;2.47;;;;;;;3.85;67.93;94120.66;4322664;32;20193;-54
2023/03/07 06:28:38;;;;;;;2.03;1.93;;;;;;;3.83;68.19;94122.78;4318573;32;20303;-54
2023/03/07 06:31:10;;;;;;;2.93;2.73;;;;;;;3.87;68.11;94125.63;4349531;32;20292;-55
2023/03/07 06:33:38;;;;;;;2.63;2.43;;;;;;;3.85;68.61;94125.91;4319506;32;20331;-52
2023/03/07 06:36:12;;;;;;;4.17;3.87;;;;;;;3.97;68.18;94130.75;4295025;33;20294;-54
2023/03/07 06:38:43;;;;;;;2.27;2.17;;;;;;;3.94;68.21;94129.47;4322338;32;20281;-54
2023/03/07 06:41:19;;;;;;;3.33;3.13;;;;;;;3.97;68.17;94123.66;4339578;32;20356;-54
2023/03/07 06:43:44;;;;;;;2.17;2.07;;;;;;;4.13;67.67;94130.28;4303769;32;20379;-53
2023/03/07 06:46:10;;;;;;;5.87;3.03;;;;;;;4.29;66.73;94125.63;4312875;32;20278;-56
2023/03/07 06:48:36;;;;;;;1.73;1.67;;;;;;;4.01;67.85;94129.91;4309621;32;20335;-53
2023/03/07 06:51:08;;;;;;;2.80;2.70;;;;;;;4.04;68.05;94125.94;4320118;32;20259;-55
2023/03/07 06:53:54;;;;;;;2.37;2.27;;;;;;;4.05;68.17;94120.41;4341698;32;20189;-54
2023/03/07 06:56:19;;;;;;;3.17;2.83;;;;;;;3.85;68.37;94125.91;4332471;32;20282;-54
2023/03/07 06:58:45;;;;;;;3.47;3.27;;;;;;;3.91;68.92;94130.03;4331405;32;20316;-53
2023/03/07 07:01:27;;;;;;;2.63;2.13;;;;;;;4.11;68.95;94129.78;4308624;32;20194;-53
2023/03/07 07:03:53;;;;;;;2.73;2.63;;;;;;;4.03;68.60;94133.03;4313055;32;20232;-53
2023/03/07 07:06:21;;;;;;;3.90;2.83;;;;;;;4.24;68.24;94124.91;4329328;32;20301;-52
2023/03/07 07:08:47;;;;;;;3.47;3.17;;;;;;;4.26;67.64;94128.03;4324146;32;20448;-53
2023/03/07 07:11:14;;;;;;;3.77;3.47;;;;;;;4.32;68.07;94134.78;4313872;32;20282;-51
2023/03/07 07:13:44;;;;;;;3.17;2.93;;;;;;;4.25;68.04;94132.50;4320376;32;20185;-52
2023/03/07 07:16:13;;;;;;;2.93;2.83;;;;;;;4.47;66.75;94137.19;4303330;32;20306;-52
2023/03/07 07:18:44;;;;;;;3.13;2.93;;;;;;;4.18;67.29;94139.13;4323621;32;20310;-55
2023/03/07 07:21:09;;;;;;;2.57;2.47;;;;;;;4.30;67.18;94132.44;4341355;32;20300;-54
2023/03/07 07:23:35;;;;;;;5.50;4.17;;;;;;;4.24;67.30;94125.69;4316884;32;20346;-52
2023/03/07 07:26:02;;;;;;;5.80;2.47;;;;;;;4.19;67.72;94127.56;4343921;32;20207;-49
2023/03/07 07:28:29;;;;;;;9.20;2.67;;;;;;;5.05;85.16;94110.56;4330192;32;20212;-49
2023/03/07 07:30:55;;;;;;;3.10;2.90;;;;;;;5.52;80.26;94120.78;4325919;32;20286;-52
2023/03/07 07:33:23;;;;;;;19.77;2.53;;;;;;;5.75;71.47;94113.00;4308004;32;20389;-53
2023/03/07 07:35:50;;;;;;;2.50;2.40;;;;;;;6.25;76.99;94107.78;4316983;32;20188;-51
2023/03/07 07:38:15;;;;;;;7.03;3.40;;;;;;;6.60;73.21;94106.25;4358106;32;20281;-49
2023/03/07 07:40:41;;;;;;;3.37;3.00;;;;;;;6.98;76.17;94107.47;4315322;32;20282;-52
2023/03/07 07:43:17;;;;;;;12.90;4.03;;;;;;;7.24;70.64;94110.28;4339119;32;20189;-51
2023/03/07 07:45:45;;;;;;;2.27;2.13;;;;;;;7.56;73.40;94096.78;4288583;32;20381;-46
2023/03/07 07:48:17;;;;;;;2.27;2.10;;;;;;;7.45;63.58;94092.84;4316676;32;20305;-48
2023/03/07 07:50:54;;;;;;;1.37;1.30;;;;;;;7.20;59.45;94093.50;4326960;32;20262;-54
2023/03/07 07:53:21;;;;;;;1.83;1.73;;;;;;;6.96;62.99;94098.31;4348983;32;20301;-50
2023/03/07 07:55:49;;;;;;;2.50;2.40;;;;;;;7.08;69.72;94095.88;4357998;32;20324;-50
2023/03/07 07:58:16;;;;;;;1.57;1.50;;;;;;;6.88;64.81;94097.94;4323453;32;20328;-52
2023/03/07 08:00:44;;;;;;;2.27;2.17;;;;;;;6.20;58.41;94090.28;4322890;32;20289;-52
2023/03/07 08:03:20;;;;;;;3.33;1.87;;;;;;;5.94;59.27;94102.41;4329304;32;20345;-51
2023/03/07 08:05:47;;;;;;;1.77;1.67;;;;;;;5.43;59.33;94096.22;4300375;32;20371;-54
2023/03/07 08:08:15;;;;;;;2.07;1.97;;;;;;;5.55;61.21;94087.06;4302737;32;20298;-53
2023/03/07 08:10:44;;;;;;;2.03;1.93;;;;;;;5.44;58.94;94092.50;4311045;32;20290;-52
2023/03/07 08:13:15;;;;;;;1.57;1.47;;;;;;;5.44;59.31;94097.78;4344269;32;20320;-50
2023/03/07 08:15:42;;;;;;;1.80;1.77;;;;;;;5.37;59.22;94084.25;4345789;32;20360;-52
2023/03/07 08:18:09;;;;;;;1.77;1.67;;;;;;;5.54;59.55;94091.56;4328299;32;20305;-52
2023/03/07 08:20:40;;;;;;;2.03;1.93;;;;;;;5.84;57.75;94098.84;4323447;32;20291;-51
2023/03/07 08:23:07;;;;;;;1.23;1.23;;;;;;;5.91;56.33;94095.88;4280121;33;20294;-49
2023/03/07 08:25:33;;;;;;;1.90;1.80;;;;;;;6.13;55.85;94090.66;4295301;33;20302;-48
2023/03/07 08:28:02;;;;;;;2.60;1.63;;;;;;;6.28;54.90;94084.28;4330262;32;20298;-53
2023/03/07 08:30:43;;;;;;;1.43;1.43;;;;;;;6.69;55.28;94086.78;4327046;32;20328;-52
2023/03/07 08:33:14;;;;;;;2.00;1.80;;;;;;;6.50;53.89;94088.81;4346719;32;20284;-52
2023/03/07 08:35:40;;;;;;;0.73;0.70;;;;;;;6.59;53.79;94087.03;4337630;32;20316;-50
2023/03/07 08:38:08;;;;;;;2.53;2.30;;;;;;;6.79;53.91;94077.88;4326574;32;20305;-54
2023/03/07 08:40:41;;;;;;;1.73;1.63;;;;;;;6.74;51.92;94084.03;4299219;32;20294;-52
2023/03/07 08:43:07;;;;;;;2.47;1.57;;;;;;;6.64;52.02;94079.03;4324594;32;20329;-52
2023/03/07 08:45:38;;;;;;;2.70;2.50;;;;;;;6.87;53.05;94074.50;4303068;32;20340;-55
2023/03/07 08:48:06;;;;;;;4.07;1.73;;;;;;;7.05;54.11;94076.19;4301451;32;20321;-52
2023/03/07 08:50:33;;;;;;;1.77;1.23;;;;;;;7.03;51.92;94080.22;4297850;32;20362;-54
2023/03/07 08:52:58;;;;;;;1.07;1.03;;;;;;;6.75;51.85;94082.19;4328516;32;20278;-52
2023/03/07 08:55:24;;;;;;;1.70;1.60;;;;;;;6.84;52.47;94064.59;4350536;32;20266;-54
2023/03/07 08:57:50;;;;;;;1.77;1.67;;;;;;;6.77;51.66;94067.62;4296732;32;20244;-52
2023/03/07 09:00:16;;;;;;;1.80;1.70;;;;;;;7.32;50.80;94069.97;4341299;32;20212;-51
2023/03/07 09:02:45;;;;;;;0.93;0.93;;;;;;;6.93;50.64;94062.78;4298374;32;20225;-50
2023/03/07 09:05:14;;;;;;;3.50;1.77;;;;;;;7.17;50.25;94060.59;4319706;32;20351;-51
2023/03/07 09:07:41;;;;;;;1.97;1.83;;;;;;;6.99;50.82;94066.84;4291283;33;20346;-54
2023/03/07 09:10:11;;;;;;;1.77;1.73;;;;;;;7.13;51.04;94061.50;4332987;32;20325;-51
2023/03/07 09:12:36;;;;;;;2.07;1.97;;;;;;;6.84;50.29;94061.97;4312723;32;20296;-52
2023/03/07 09:15:04;;;;;;;2.97;1.77;;;;;;;6.96;50.62;94067.44;4282304;32;20279;-56
2023/03/07 09:17:31;;;;;;;0.90;0.90;;;;;;;7.17;50.11;94073.00;4324301;32;20269;-50
2023/03/07 09:19:57;;;;;;;1.23;1.23;;;;;;;7.68;51.30;94050.56;4265411;32;20315;-54
2023/03/07 09:22:27;;;;;;;1.53;1.43;;;;;;;7.33;49.84;94050.41;4335446;32;20277;-52
2023/03/07 09:24:53;;;;;;;1.93;1.83;;;;;;;7.56;49.11;94054.56;4315301;32;20319;-53
2023/03/07 09:27:26;;;;;;;2.57;2.40;;;;;;;7.79;49.52;94057.88;4313816;33;20290;-51
2023/03/07 09:29:53;;;;;;;3.17;2.30;;;;;;;7.51;48.72;94051.25;4333648;32;20284;-52
2023/03/07 09:32:21;;;;;;;1.27;1.27;;;;;;;7.59;49.56;94061.88;4317564;32;20305;-51
2023/03/07 09:34:47;;;;;;;2.37;1.53;;;;;;;7.56;48.95;94070.38;4331536;32;20277;-53
2023/03/07 09:37:14;;;;;;;1.97;1.87;;;;;;;7.84;48.85;94051.69;4328699;32;20462;-49
2023/03/07 09:39:42;;;;;;;1.63;1.53;;;;;;;7.79;48.44;94043.91;4353784;32;20304;-52
2023/03/07 09:42:46;;;;;;;1.67;1.57;;;;;;;7.89;50.94;94048.91;4311946;32;20323;-50
2023/03/07 09:45:45;;;;;;;2.27;1.80;;;;;;;7.78;48.22;94034.44;4302514;32;20340;-49
2023/03/07 09:48:54;;;;;;;2.57;1.63;;;;;;;8.19;48.89;94048.03;4300681;32;20301;-51
2023/03/07 09:51:39;;;;;;;1.70;1.60;;;;;;;7.84;47.21;94028.72;4341190;32;20323;-49
2023/03/07 09:54:39;;;;;;;1.50;1.50;;;;;;;8.19;49.13;94013.69;4355354;32;20289;-54
2023/03/07 09:57:13;;;;;;;1.97;1.87;;;;;;;8.21;46.38;94021.28;4360411;32;20288;-52
2023/03/07 10:00:15;;;;;;;4.73;1.90;;;;;;;8.47;46.82;94010.78;4309627;32;20344;-52
2023/03/07 10:02:52;;;;;;;7.17;1.67;;;;;;;8.21;46.83;94014.16;4322997;32;20414;-51
2023/03/07 10:05:20;;;;;;;2.17;1.73;;;;;;;7.79;46.34;94006.94;4333479;32;20289;-50
2023/03/07 10:07:48;;;;;;;1.70;1.60;;;;;;;7.88;48.71;94011.19;4310148;32;20338;-53
2023/03/07 10:10:20;;;;;;;2.60;2.40;;;;;;;7.99;48.51;94002.94;4334536;32;20274;-51
2023/03/07 10:13:25;;;;;;;2.03;1.93;;;;;;;8.31;49.00;93993.81;4313481;32;20334;-52
2023/03/07 10:16:01;;;;;;;3.70;2.20;;;;;;;8.57;47.57;93987.44;4339252;32;20327;-51
2023/03/07 10:18:39;;;;;;;1.97;1.87;;;;;;;8.78;46.45;93992.06;4327322;32;20189;-50
2023/03/07 10:21:40;;;;;;;1.53;1.53;;;;;;;8.42;46.56;93985.28;4322251;32;20282;-52
2023/03/07 10:24:43;;;;;;;1.63;1.63;;;;;;;8.45;45.74;93982.00;4272201;33;20301;-54
2023/03/07 10:27:12;;;;;;;4.70;1.23;;;;;;;8.56;45.86;93974.53;4287803;32;20294;-53
2023/03/07 10:29:58;;;;;;;1.80;1.70;;;;;;;8.72;46.93;93972.19;4271700;33;20228;-54
2023/03/07 10:32:43;;;;;;;2.80;2.60;;;;;;;8.58;45.51;93962.56;4290027;33;20214;-54
2023/03/07 10:35:12;;;;;;;5.43;2.13;;;;;;;8.44;46.92;93958.53;4340797;32;20297;-51
2023/03/07 10:38:17;;;;;;;2.13;2.03;;;;;;;9.06;48.66;93966.00;4340066;32;20372;-54
2023/03/07 10:40:53;;;;;;;2.70;2.50;;;;;;;9.18;47.48;93952.88;4318889;32;20378;-54
2023/03/07 10:43:26;;;;;;;3.13;2.93;;;;;;;9.48;44.13;93949.16;4330597;32;20244;-55
2023/03/07 10:46:13;;;;;;;2.23;2.10;;;;;;;9.50;44.30;93944.34;4330545;32;20185;-53
2023/03/07 10:48:43;;;;;;;2.90;2.70;;;;;;;9.15;44.25;93948.22;4347327;32;20215;-53
2023/03/07 10:51:47;;;;;;;3.17;2.30;;;;;;;9.21;43.36;93952.25;4340181;32;20213;-51
2023/03/07 10:54:27;;;;;;;2.23;2.13;;;;;;;8.79;45.01;93933.56;4331538;32;20204;-48
2023/03/07 10:57:13;;;;;;;4.83;2.13;;;;;;;8.53;44.97;93938.91;4325892;32;20302;-53
2023/03/07 10:59:42;;;;;;;2.73;2.53;;;;;;;8.43;46.33;93933.97;4328911;32;20324;-56
2023/03/07 11:02:39;;;;;;;7.53;2.63;;;;;;;8.40;45.73;93939.09;4293534;32;20348;-54
2023/03/07 11:05:30;;;;;;;1.90;1.80;;;;;;;8.11;44.72;93919.37;4334556;32;20294;-53
2023/03/07 11:07:57;;;;;;;2.33;2.23;;;;;;;8.12;47.40;93920.91;4327613;32;20340;-51
2023/03/07 11:10:39;;;;;;;1.63;1.53;;;;;;;8.03;45.57;93909.59;4336664;32;20291;-51
2023/03/07 11:13:17;;;;;;;2.50;2.30;;;;;;;8.16;47.67;93908.66;4319616;32;20281;-53
2023/03/07 11:15:45;;;;;;;2.50;2.00;;;;;;;8.13;46.07;93898.69;4322586;32;20285;-49
2023/03/07 11:18:44;;;;;;;3.53;2.93;;;;;;;8.10;47.04;93901.22;4336625;32;20290;-53
2023/03/07 11:21:37;;;;;;;2.07;1.90;;;;;;;8.20;46.96;93904.28;4336296;32;20331;-54
2023/03/07 11:24:15;;;;;;;2.43;2.33;;;;;;;7.92;47.06;93889.88;4301958;33;20309;-52
2023/03/07 11:26:42;;;;;;;2.30;1.87;;;;;;;7.92;49.59;93881.94;4268673;33;20351;-50
2023/03/07 11:29:10;;;;;;;3.43;1.73;;;;;;;7.79;47.57;93872.31;4334434;32;20313;-54
2023/03/07 11:32:14;;;;;;;1.93;1.83;;;;;;;8.01;47.44;93874.81;4317870;32;20288;-51
2023/03/07 11:34:48;;;;;;;2.33;2.23;;;;;;;7.93;47.78;93875.56;4341100;32;20296;-52
2023/03/07 11:37:16;;;;;;;2.30;2.10;;;;;;;8.04;47.44;93863.63;4343885;32;20289;-51
2023/03/07 11:40:09;;;;;;;6.27;2.27;;;;;;;8.11;47.10;93858.63;4326976;32;20298;-53
2023/03/07 11:42:49;;;;;;;1.13;1.13;;;;;;;8.08;47.40;93848.72;4316711;32;20301;-53
2023/03/07 11:45:29;;;;;;;3.20;2.57;;;;;;;8.31;47.10;93859.06;4282161;33;20400;-54
2023/03/07 11:48:28;;;;;;;1.77;1.67;;;;;;;7.80;47.38;93858.03;4295521;32;20297;-55
2023/03/07 11:50:58;;;;;;;1.87;1.77;;;;;;;7.92;47.66;93848.41;4319988;32;20309;-52
2023/03/07 11:54:04;;;;;;;2.60;2.40;;;;;;;8.07;47.74;93851.66;4323251;32;20290;-52
2023/03/07 11:56:40;;;;;;;1.33;1.33;;;;;;;8.09;47.34;93844.97;4304138;32;20345;-53
2023/03/07 11:59:23;;;;;;;1.57;1.57;;;;;;;8.22;47.52;93845.88;4326732;32;20285;-54
2023/03/07 12:02:29;;;;;;;1.70;1.67;;;;;;;8.27;47.98;93835.91;4315365;32;20309;-52
2023/03/07 12:05:30;;;;;;;2.03;1.93;;;;;;;8.20;47.58;93832.97;4301055;32;20304;-53